sensor_id;sensor_type;location;lat;lon;timestamp;P1;durP1;ratioP1;P2;durP2;ratioP2
44662;SDS011;30381;52.754;18.258;2022-10-16T00:00:32;56.68;;;36.85;;
44662;SDS011;30381;52.754;18.258;2022-10-16T00:03:02;55.10;;;35.15;;
44662;SDS011;30381;52.754;18.258;2022-10-16T00:05:30;52.33;;;34.67;;
44662;SDS011;30381;52.754;18.258;2022-10-16T00:07:56;54.33;;;34.27;;
44662;SDS011;30381;52.754;18.258;2022-10-16T00:10:23;57.30;;;37.28;;
44662;SDS011;30381;52.754;18.258;2022-10-16T00:12:50;56.37;;;37.93;;
44662;SDS011;30381;52.754;18.258;2022-10-16T00:15:16;58.25;;;39.23;;
44662;SDS011;30381;52.754;18.258;2022-10-16T00:17:43;54.38;;;37.05;;
44662;SDS011;30381;52.754;18.258;2022-10-16T00:20:09;56.75;;;38.08;;
44662;SDS011;30381;52.754;18.258;2022-10-16T00:22:35;54.10;;;36.60;;
44662;SDS011;30381;52.754;18.258;2022-10-16T00:25:02;61.65;;;38.08;;
44662;SDS011;30381;52.754;18.258;2022-10-16T00:27:29;57.20;;;37.08;;
44662;SDS011;30381;52.754;18.258;2022-10-16T00:29:55;56.05;;;37.70;;
44662;SDS011;30381;52.754;18.258;2022-10-16T00:32:22;56.23;;;37.65;;
44662;SDS011;30381;52.754;18.258;2022-10-16T00:34:49;60.00;;;38.30;;
44662;SDS011;30381;52.754;18.258;2022-10-16T00:37:16;56.77;;;37.93;;
44662;SDS011;30381;52.754;18.258;2022-10-16T00:39:42;60.05;;;39.55;;
44662;SDS011;30381;52.754;18.258;2022-10-16T00:42:11;62.08;;;40.48;;
44662;SDS011;30381;52.754;18.258;2022-10-16T00:44:47;64.58;;;39.88;;
44662;SDS011;30381;52.754;18.258;2022-10-16T00:47:24;63.30;;;40.50;;
44662;SDS011;30381;52.754;18.258;2022-10-16T00:50:09;62.38;;;40.75;;
44662;SDS011;30381;52.754;18.258;2022-10-16T00:52:47;58.92;;;40.12;;
44662;SDS011;30381;52.754;18.258;2022-10-16T00:55:15;59.63;;;38.78;;
44662;SDS011;30381;52.754;18.258;2022-10-16T00:57:42;60.70;;;38.88;;
44662;SDS011;30381;52.754;18.258;2022-10-16T01:00:11;60.12;;;39.85;;
44662;SDS011;30381;52.754;18.258;2022-10-16T01:02:41;61.60;;;39.65;;
44662;SDS011;30381;52.754;18.258;2022-10-16T01:05:08;59.05;;;38.48;;
44662;SDS011;30381;52.754;18.258;2022-10-16T01:07:44;58.08;;;38.73;;
44662;SDS011;30381;52.754;18.258;2022-10-16T01:13:22;55.43;;;38.88;;
44662;SDS011;30381;52.754;18.258;2022-10-16T01:16:01;58.87;;;39.18;;
44662;SDS011;30381;52.754;18.258;2022-10-16T01:21:22;56.20;;;38.38;;
44662;SDS011;30381;52.754;18.258;2022-10-16T01:24:03;54.45;;;36.93;;
44662;SDS011;30381;52.754;18.258;2022-10-16T01:29:42;57.23;;;38.03;;
44662;SDS011;30381;52.754;18.258;2022-10-16T01:32:30;57.40;;;37.03;;
44662;SDS011;30381;52.754;18.258;2022-10-16T01:35:14;57.90;;;37.70;;
44662;SDS011;30381;52.754;18.258;2022-10-16T01:37:46;57.67;;;37.58;;
44662;SDS011;30381;52.754;18.258;2022-10-16T01:40:25;57.05;;;36.60;;
44662;SDS011;30381;52.754;18.258;2022-10-16T01:42:59;54.08;;;36.15;;
44662;SDS011;30381;52.754;18.258;2022-10-16T01:45:33;54.42;;;35.70;;
44662;SDS011;30381;52.754;18.258;2022-10-16T01:48:02;53.23;;;35.15;;
44662;SDS011;30381;52.754;18.258;2022-10-16T01:50:33;55.28;;;35.35;;
44662;SDS011;30381;52.754;18.258;2022-10-16T01:53:04;54.33;;;34.58;;
44662;SDS011;30381;52.754;18.258;2022-10-16T01:55:33;48.85;;;34.33;;
44662;SDS011;30381;52.754;18.258;2022-10-16T01:58:04;49.80;;;33.42;;
44662;SDS011;30381;52.754;18.258;2022-10-16T02:00:33;52.65;;;34.00;;
44662;SDS011;30381;52.754;18.258;2022-10-16T02:03:02;53.10;;;35.68;;
44662;SDS011;30381;52.754;18.258;2022-10-16T02:05:37;50.08;;;32.58;;
44662;SDS011;30381;52.754;18.258;2022-10-16T02:08:17;50.58;;;33.15;;
44662;SDS011;30381;52.754;18.258;2022-10-16T02:10:44;50.08;;;33.42;;
44662;SDS011;30381;52.754;18.258;2022-10-16T02:13:17;48.30;;;32.55;;
44662;SDS011;30381;52.754;18.258;2022-10-16T02:15:51;48.87;;;32.48;;
44662;SDS011;30381;52.754;18.258;2022-10-16T02:18:18;47.85;;;33.13;;
44662;SDS011;30381;52.754;18.258;2022-10-16T02:20:48;47.83;;;32.58;;
44662;SDS011;30381;52.754;18.258;2022-10-16T02:26:23;46.55;;;31.87;;
44662;SDS011;30381;52.754;18.258;2022-10-16T02:28:59;47.17;;;31.87;;
44662;SDS011;30381;52.754;18.258;2022-10-16T02:31:32;49.63;;;31.57;;
44662;SDS011;30381;52.754;18.258;2022-10-16T02:34:04;45.52;;;30.27;;
44662;SDS011;30381;52.754;18.258;2022-10-16T02:36:32;45.83;;;31.62;;
44662;SDS011;30381;52.754;18.258;2022-10-16T02:39:02;45.50;;;31.37;;
44662;SDS011;30381;52.754;18.258;2022-10-16T02:41:30;48.02;;;31.42;;
44662;SDS011;30381;52.754;18.258;2022-10-16T02:43:57;46.55;;;31.23;;
44662;SDS011;30381;52.754;18.258;2022-10-16T02:46:23;44.38;;;28.87;;
44662;SDS011;30381;52.754;18.258;2022-10-16T02:48:50;44.40;;;30.43;;
44662;SDS011;30381;52.754;18.258;2022-10-16T02:51:16;46.18;;;31.02;;
44662;SDS011;30381;52.754;18.258;2022-10-16T02:53:42;45.05;;;31.52;;
44662;SDS011;30381;52.754;18.258;2022-10-16T02:56:10;42.45;;;30.02;;
44662;SDS011;30381;52.754;18.258;2022-10-16T02:58:36;42.10;;;29.90;;
44662;SDS011;30381;52.754;18.258;2022-10-16T03:01:02;43.38;;;30.85;;
44662;SDS011;30381;52.754;18.258;2022-10-16T03:03:29;42.55;;;29.35;;
44662;SDS011;30381;52.754;18.258;2022-10-16T03:05:55;41.92;;;29.00;;
44662;SDS011;30381;52.754;18.258;2022-10-16T03:08:22;43.70;;;31.20;;
44662;SDS011;30381;52.754;18.258;2022-10-16T03:10:50;41.48;;;28.83;;
44662;SDS011;30381;52.754;18.258;2022-10-16T03:13:17;44.25;;;29.77;;
44662;SDS011;30381;52.754;18.258;2022-10-16T03:15:45;43.65;;;28.77;;
44662;SDS011;30381;52.754;18.258;2022-10-16T03:18:11;43.35;;;29.45;;
44662;SDS011;30381;52.754;18.258;2022-10-16T03:20:38;43.87;;;28.65;;
44662;SDS011;30381;52.754;18.258;2022-10-16T03:23:04;40.65;;;28.40;;
44662;SDS011;30381;52.754;18.258;2022-10-16T03:25:32;38.53;;;27.58;;
44662;SDS011;30381;52.754;18.258;2022-10-16T03:27:58;40.92;;;28.25;;
44662;SDS011;30381;52.754;18.258;2022-10-16T03:30:25;42.90;;;27.20;;
44662;SDS011;30381;52.754;18.258;2022-10-16T03:32:51;39.45;;;27.35;;
44662;SDS011;30381;52.754;18.258;2022-10-16T03:35:20;38.10;;;25.82;;
44662;SDS011;30381;52.754;18.258;2022-10-16T03:37:47;40.85;;;27.77;;
44662;SDS011;30381;52.754;18.258;2022-10-16T03:40:14;51.37;;;27.05;;
44662;SDS011;30381;52.754;18.258;2022-10-16T03:42:45;39.18;;;27.25;;
44662;SDS011;30381;52.754;18.258;2022-10-16T03:45:09;38.90;;;27.13;;
44662;SDS011;30381;52.754;18.258;2022-10-16T03:47:37;36.23;;;25.08;;
44662;SDS011;30381;52.754;18.258;2022-10-16T03:50:04;39.70;;;27.67;;
44662;SDS011;30381;52.754;18.258;2022-10-16T03:52:31;41.63;;;28.67;;
44662;SDS011;30381;52.754;18.258;2022-10-16T03:54:58;38.13;;;28.05;;
44662;SDS011;30381;52.754;18.258;2022-10-16T03:57:25;36.15;;;26.65;;
44662;SDS011;30381;52.754;18.258;2022-10-16T03:59:51;37.73;;;26.70;;
44662;SDS011;30381;52.754;18.258;2022-10-16T04:02:17;35.48;;;25.62;;
44662;SDS011;30381;52.754;18.258;2022-10-16T04:04:44;35.28;;;26.87;;
44662;SDS011;30381;52.754;18.258;2022-10-16T04:07:10;33.70;;;24.55;;
44662;SDS011;30381;52.754;18.258;2022-10-16T04:09:36;35.25;;;24.40;;
44662;SDS011;30381;52.754;18.258;2022-10-16T04:12:03;34.23;;;23.12;;
44662;SDS011;30381;52.754;18.258;2022-10-16T04:14:29;33.63;;;22.25;;
44662;SDS011;30381;52.754;18.258;2022-10-16T04:16:56;34.85;;;23.20;;
44662;SDS011;30381;52.754;18.258;2022-10-16T04:19:22;32.08;;;22.07;;
44662;SDS011;30381;52.754;18.258;2022-10-16T04:21:48;35.92;;;24.07;;
44662;SDS011;30381;52.754;18.258;2022-10-16T04:24:15;34.50;;;25.00;;
44662;SDS011;30381;52.754;18.258;2022-10-16T04:26:41;31.93;;;24.92;;
44662;SDS011;30381;52.754;18.258;2022-10-16T04:29:08;32.60;;;24.82;;
44662;SDS011;30381;52.754;18.258;2022-10-16T04:31:34;32.33;;;23.18;;
44662;SDS011;30381;52.754;18.258;2022-10-16T04:34:00;31.35;;;22.35;;
44662;SDS011;30381;52.754;18.258;2022-10-16T04:36:27;30.52;;;21.50;;
44662;SDS011;30381;52.754;18.258;2022-10-16T04:38:54;30.90;;;21.73;;
44662;SDS011;30381;52.754;18.258;2022-10-16T04:41:20;28.45;;;19.65;;
44662;SDS011;30381;52.754;18.258;2022-10-16T04:43:46;27.85;;;19.40;;
44662;SDS011;30381;52.754;18.258;2022-10-16T04:46:13;27.48;;;18.45;;
44662;SDS011;30381;52.754;18.258;2022-10-16T04:48:39;26.05;;;18.57;;
44662;SDS011;30381;52.754;18.258;2022-10-16T04:51:06;25.43;;;18.00;;
44662;SDS011;30381;52.754;18.258;2022-10-16T04:53:32;28.80;;;19.87;;
44662;SDS011;30381;52.754;18.258;2022-10-16T04:55:59;27.40;;;21.42;;
44662;SDS011;30381;52.754;18.258;2022-10-16T04:58:26;29.23;;;20.60;;
44662;SDS011;30381;52.754;18.258;2022-10-16T05:00:52;29.75;;;22.35;;
44662;SDS011;30381;52.754;18.258;2022-10-16T05:03:19;27.13;;;20.10;;
44662;SDS011;30381;52.754;18.258;2022-10-16T05:05:45;29.23;;;18.90;;
44662;SDS011;30381;52.754;18.258;2022-10-16T05:08:13;23.75;;;17.52;;
44662;SDS011;30381;52.754;18.258;2022-10-16T05:10:40;23.75;;;16.93;;
44662;SDS011;30381;52.754;18.258;2022-10-16T05:13:08;23.70;;;16.45;;
44662;SDS011;30381;52.754;18.258;2022-10-16T05:15:36;22.93;;;16.15;;
44662;SDS011;30381;52.754;18.258;2022-10-16T05:18:02;25.10;;;16.85;;
44662;SDS011;30381;52.754;18.258;2022-10-16T05:20:29;23.77;;;16.30;;
44662;SDS011;30381;52.754;18.258;2022-10-16T05:22:55;32.65;;;24.25;;
44662;SDS011;30381;52.754;18.258;2022-10-16T05:25:21;28.75;;;21.85;;
44662;SDS011;30381;52.754;18.258;2022-10-16T05:27:48;22.48;;;15.95;;
44662;SDS011;30381;52.754;18.258;2022-10-16T05:30:15;21.85;;;15.68;;
44662;SDS011;30381;52.754;18.258;2022-10-16T05:32:46;23.02;;;15.78;;
44662;SDS011;30381;52.754;18.258;2022-10-16T05:35:15;22.25;;;15.18;;
44662;SDS011;30381;52.754;18.258;2022-10-16T05:37:43;25.10;;;16.62;;
44662;SDS011;30381;52.754;18.258;2022-10-16T05:40:10;21.85;;;15.23;;
44662;SDS011;30381;52.754;18.258;2022-10-16T05:42:38;24.92;;;17.67;;
44662;SDS011;30381;52.754;18.258;2022-10-16T05:45:10;21.87;;;15.45;;
44662;SDS011;30381;52.754;18.258;2022-10-16T05:47:37;24.40;;;17.02;;
44662;SDS011;30381;52.754;18.258;2022-10-16T05:50:07;28.30;;;18.80;;
44662;SDS011;30381;52.754;18.258;2022-10-16T05:52:34;22.07;;;16.80;;
44662;SDS011;30381;52.754;18.258;2022-10-16T05:55:03;28.23;;;19.52;;
44662;SDS011;30381;52.754;18.258;2022-10-16T05:57:32;24.27;;;18.00;;
44662;SDS011;30381;52.754;18.258;2022-10-16T05:59:59;24.27;;;15.90;;
44662;SDS011;30381;52.754;18.258;2022-10-16T06:02:25;24.32;;;16.52;;
44662;SDS011;30381;52.754;18.258;2022-10-16T06:04:52;23.77;;;14.83;;
44662;SDS011;30381;52.754;18.258;2022-10-16T06:07:24;19.10;;;13.65;;
44662;SDS011;30381;52.754;18.258;2022-10-16T06:09:55;18.57;;;13.50;;
44662;SDS011;30381;52.754;18.258;2022-10-16T06:12:36;19.73;;;13.50;;
44662;SDS011;30381;52.754;18.258;2022-10-16T06:18:10;20.08;;;14.80;;
44662;SDS011;30381;52.754;18.258;2022-10-16T06:23:33;18.30;;;12.95;;
44662;SDS011;30381;52.754;18.258;2022-10-16T06:28:46;17.45;;;11.57;;
44662;SDS011;30381;52.754;18.258;2022-10-16T06:31:14;20.30;;;12.70;;
44662;SDS011;30381;52.754;18.258;2022-10-16T06:33:56;26.20;;;15.30;;
44662;SDS011;30381;52.754;18.258;2022-10-16T06:36:32;21.20;;;13.50;;
44662;SDS011;30381;52.754;18.258;2022-10-16T06:44:52;17.40;;;11.95;;
44662;SDS011;30381;52.754;18.258;2022-10-16T12:40:46;14.78;;;6.40;;
44662;SDS011;30381;52.754;18.258;2022-10-16T12:52:50;22.48;;;7.37;;
44662;SDS011;30381;52.754;18.258;2022-10-16T12:55:38;20.95;;;7.05;;
44662;SDS011;30381;52.754;18.258;2022-10-16T16:23:04;23.83;;;11.05;;
44662;SDS011;30381;52.754;18.258;2022-10-16T16:29:01;27.52;;;17.98;;
44662;SDS011;30381;52.754;18.258;2022-10-16T16:31:32;41.18;;;25.10;;
44662;SDS011;30381;52.754;18.258;2022-10-16T16:34:00;50.12;;;33.55;;
44662;SDS011;30381;52.754;18.258;2022-10-16T16:36:30;65.92;;;40.60;;
44662;SDS011;30381;52.754;18.258;2022-10-16T16:39:06;63.90;;;47.05;;
44662;SDS011;30381;52.754;18.258;2022-10-16T16:41:48;61.50;;;49.27;;
44662;SDS011;30381;52.754;18.258;2022-10-16T16:44:40;49.35;;;35.05;;
44662;SDS011;30381;52.754;18.258;2022-10-16T16:47:47;39.45;;;27.07;;
44662;SDS011;30381;52.754;18.258;2022-10-16T16:50:26;39.20;;;25.17;;
44662;SDS011;30381;52.754;18.258;2022-10-16T16:52:59;37.98;;;26.10;;
44662;SDS011;30381;52.754;18.258;2022-10-16T16:56:25;42.75;;;28.20;;
44662;SDS011;30381;52.754;18.258;2022-10-16T16:59:05;37.20;;;25.15;;
44662;SDS011;30381;52.754;18.258;2022-10-16T17:01:54;34.92;;;23.15;;
44662;SDS011;30381;52.754;18.258;2022-10-16T17:13:57;28.83;;;18.57;;
44662;SDS011;30381;52.754;18.258;2022-10-16T17:16:44;29.82;;;19.92;;
44662;SDS011;30381;52.754;18.258;2022-10-16T17:19:18;29.18;;;19.82;;
44662;SDS011;30381;52.754;18.258;2022-10-16T17:22:01;33.67;;;24.50;;
44662;SDS011;30381;52.754;18.258;2022-10-16T21:30:30;37.58;;;22.75;;
44662;SDS011;30381;52.754;18.258;2022-10-16T21:33:00;35.52;;;22.87;;
44662;SDS011;30381;52.754;18.258;2022-10-16T21:35:26;31.97;;;22.52;;
44662;SDS011;30381;52.754;18.258;2022-10-16T21:37:55;34.40;;;23.20;;
44662;SDS011;30381;52.754;18.258;2022-10-16T21:40:27;37.00;;;26.10;;
44662;SDS011;30381;52.754;18.258;2022-10-16T21:43:00;37.50;;;26.48;;
44662;SDS011;30381;52.754;18.258;2022-10-16T21:45:31;33.00;;;22.82;;
44662;SDS011;30381;52.754;18.258;2022-10-16T21:48:19;37.10;;;26.33;;
44662;SDS011;30381;52.754;18.258;2022-10-16T21:50:53;34.60;;;23.50;;
44662;SDS011;30381;52.754;18.258;2022-10-16T21:53:28;34.18;;;23.40;;
44662;SDS011;30381;52.754;18.258;2022-10-16T21:56:13;31.85;;;22.00;;
44662;SDS011;30381;52.754;18.258;2022-10-16T21:58:47;31.60;;;21.05;;
44662;SDS011;30381;52.754;18.258;2022-10-16T22:01:18;29.50;;;20.43;;
44662;SDS011;30381;52.754;18.258;2022-10-16T22:03:46;33.50;;;20.80;;
44662;SDS011;30381;52.754;18.258;2022-10-16T22:06:14;32.48;;;21.93;;
44662;SDS011;30381;52.754;18.258;2022-10-16T22:08:44;30.60;;;20.52;;
44662;SDS011;30381;52.754;18.258;2022-10-16T22:11:16;32.93;;;20.57;;
44662;SDS011;30381;52.754;18.258;2022-10-16T22:13:48;34.63;;;21.17;;
44662;SDS011;30381;52.754;18.258;2022-10-16T22:16:18;31.23;;;20.55;;
44662;SDS011;30381;52.754;18.258;2022-10-16T22:18:54;34.03;;;21.77;;
44662;SDS011;30381;52.754;18.258;2022-10-16T22:21:21;31.48;;;20.48;;
44662;SDS011;30381;52.754;18.258;2022-10-16T22:23:49;31.57;;;21.25;;
44662;SDS011;30381;52.754;18.258;2022-10-16T22:26:15;31.07;;;20.37;;
44662;SDS011;30381;52.754;18.258;2022-10-16T22:28:42;32.48;;;20.72;;
44662;SDS011;30381;52.754;18.258;2022-10-16T22:31:10;30.75;;;21.17;;
44662;SDS011;30381;52.754;18.258;2022-10-16T22:33:42;31.93;;;20.65;;
44662;SDS011;30381;52.754;18.258;2022-10-16T22:36:12;34.67;;;20.85;;
44662;SDS011;30381;52.754;18.258;2022-10-16T22:38:44;31.35;;;20.62;;
44662;SDS011;30381;52.754;18.258;2022-10-16T22:41:12;32.58;;;21.35;;
44662;SDS011;30381;52.754;18.258;2022-10-16T22:43:43;35.70;;;22.50;;
44662;SDS011;30381;52.754;18.258;2022-10-16T22:46:13;38.45;;;24.45;;
44662;SDS011;30381;52.754;18.258;2022-10-16T22:48:45;33.15;;;21.20;;
44662;SDS011;30381;52.754;18.258;2022-10-16T22:51:12;34.95;;;22.07;;
44662;SDS011;30381;52.754;18.258;2022-10-16T22:53:40;34.98;;;22.07;;
44662;SDS011;30381;52.754;18.258;2022-10-16T22:56:07;31.50;;;20.40;;
44662;SDS011;30381;52.754;18.258;2022-10-16T22:58:36;32.88;;;20.50;;
44662;SDS011;30381;52.754;18.258;2022-10-16T23:01:09;32.42;;;21.40;;
44662;SDS011;30381;52.754;18.258;2022-10-16T23:03:48;31.80;;;20.25;;
44662;SDS011;30381;52.754;18.258;2022-10-16T23:06:14;30.75;;;19.70;;
44662;SDS011;30381;52.754;18.258;2022-10-16T23:08:41;30.52;;;20.10;;
44662;SDS011;30381;52.754;18.258;2022-10-16T23:11:08;31.70;;;19.77;;
44662;SDS011;30381;52.754;18.258;2022-10-16T23:13:40;29.00;;;19.15;;
44662;SDS011;30381;52.754;18.258;2022-10-16T23:16:11;30.43;;;19.52;;
44662;SDS011;30381;52.754;18.258;2022-10-16T23:18:41;29.42;;;19.57;;
44662;SDS011;30381;52.754;18.258;2022-10-16T23:21:10;28.20;;;18.62;;
44662;SDS011;30381;52.754;18.258;2022-10-16T23:23:39;28.87;;;18.35;;
44662;SDS011;30381;52.754;18.258;2022-10-16T23:26:07;26.05;;;17.30;;
44662;SDS011;30381;52.754;18.258;2022-10-16T23:28:36;26.90;;;17.75;;
44662;SDS011;30381;52.754;18.258;2022-10-16T23:31:04;29.60;;;19.52;;
44662;SDS011;30381;52.754;18.258;2022-10-16T23:33:32;27.05;;;17.17;;
44662;SDS011;30381;52.754;18.258;2022-10-16T23:36:03;29.67;;;19.67;;
44662;SDS011;30381;52.754;18.258;2022-10-16T23:38:32;32.08;;;19.52;;
44662;SDS011;30381;52.754;18.258;2022-10-16T23:40:59;29.87;;;19.85;;
44662;SDS011;30381;52.754;18.258;2022-10-16T23:43:27;29.50;;;20.15;;
44662;SDS011;30381;52.754;18.258;2022-10-16T23:45:54;29.87;;;18.60;;
44662;SDS011;30381;52.754;18.258;2022-10-16T23:48:20;33.15;;;20.08;;
44662;SDS011;30381;52.754;18.258;2022-10-16T23:50:48;30.35;;;20.30;;
44662;SDS011;30381;52.754;18.258;2022-10-16T23:53:14;29.02;;;18.80;;
44662;SDS011;30381;52.754;18.258;2022-10-16T23:55:41;29.92;;;18.77;;
44662;SDS011;30381;52.754;18.258;2022-10-16T23:58:08;33.92;;;21.95;;
